createdAt,value
2018-04-08T00:00:25.855Z,13.50
2018-04-08T00:02:53.310Z,13.50
2018-04-08T00:05:20.749Z,13.50
2018-04-08T00:07:48.201Z,13.50
2018-04-08T00:10:15.646Z,13.50
2018-04-08T00:12:43.088Z,13.40
2018-04-08T00:18:40.636Z,13.40
2018-04-08T00:21:08.378Z,13.30
2018-04-08T00:23:38.221Z,13.30
2018-04-08T00:26:05.674Z,13.20
2018-04-08T00:28:33.115Z,13.20
2018-04-08T00:31:00.564Z,13.10
2018-04-08T00:33:29.840Z,13.10
2018-04-08T00:35:59.706Z,13.10
2018-04-08T00:38:27.152Z,13.10
2018-04-08T00:40:54.593Z,13.10
2018-04-08T00:43:22.066Z,13.10
2018-04-08T00:45:49.530Z,13.00
2018-04-08T00:48:16.983Z,13.00
2018-04-08T00:50:44.494Z,12.90
2018-04-08T00:53:11.930Z,12.80
2018-04-08T00:55:39.376Z,12.80
2018-04-08T00:58:06.817Z,12.80
2018-04-08T01:00:34.272Z,12.80
2018-04-08T01:03:01.719Z,12.80
2018-04-08T01:05:29.162Z,12.80
2018-04-08T01:07:56.629Z,12.80
2018-04-08T01:10:24.068Z,12.80
2018-04-08T01:12:51.521Z,12.80
2018-04-08T01:15:19.297Z,12.70
2018-04-08T01:17:46.732Z,12.70
2018-04-08T01:20:14.203Z,12.70
2018-04-08T01:22:41.663Z,12.70
2018-04-08T01:25:09.350Z,12.60
2018-04-08T01:27:36.788Z,12.60
2018-04-08T01:30:04.230Z,12.50
2018-04-08T01:32:31.862Z,12.40
2018-04-08T01:34:59.306Z,12.30
2018-04-08T01:37:26.752Z,12.20
2018-04-08T01:39:55.217Z,12.20
2018-04-08T01:42:22.679Z,12.10
2018-04-08T01:44:50.151Z,12.20
2018-04-08T01:47:17.614Z,12.20
2018-04-08T01:49:45.069Z,12.20
2018-04-08T01:52:12.510Z,12.10
2018-04-08T01:54:40.002Z,12.10
2018-04-08T01:57:07.551Z,12.00
2018-04-08T01:59:34.985Z,12.00
2018-04-08T02:02:02.462Z,11.80
2018-04-08T02:04:29.921Z,11.80
2018-04-08T02:06:57.343Z,11.80
2018-04-08T02:09:24.796Z,11.70
2018-04-08T02:11:52.249Z,11.70
2018-04-08T02:14:19.697Z,11.60
2018-04-08T02:16:47.136Z,11.60
2018-04-08T02:19:14.583Z,11.60
2018-04-08T02:21:42.051Z,11.60
2018-04-08T02:24:09.501Z,11.50
2018-04-08T02:26:36.965Z,11.50
2018-04-08T02:29:04.451Z,11.50
2018-04-08T02:31:31.948Z,11.50
2018-04-08T02:33:59.428Z,11.50
2018-04-08T02:36:26.866Z,11.40
2018-04-08T02:38:54.337Z,11.40
2018-04-08T02:41:21.780Z,11.40
2018-04-08T02:43:49.223Z,11.40
2018-04-08T02:46:16.667Z,11.40
2018-04-08T02:48:44.115Z,11.30
2018-04-08T02:51:11.563Z,11.20
2018-04-08T02:53:38.993Z,11.20
2018-04-08T02:56:06.439Z,11.10
2018-04-08T02:58:33.978Z,11.10
2018-04-08T03:01:01.413Z,11.10
2018-04-08T03:03:29.551Z,11.10
2018-04-08T03:08:29.446Z,11.20
2018-04-08T03:10:56.900Z,11.20
2018-04-08T03:13:24.347Z,11.20
2018-04-08T03:15:51.798Z,11.30
2018-04-08T03:18:19.400Z,11.30
2018-04-08T03:20:47.104Z,11.30
2018-04-08T03:23:14.550Z,11.40
2018-04-08T03:25:42.007Z,11.40
2018-04-08T03:28:09.452Z,11.40
2018-04-08T03:30:36.894Z,11.50
2018-04-08T03:33:04.375Z,11.60
2018-04-08T03:35:31.816Z,11.60
2018-04-08T03:37:59.245Z,11.70
2018-04-08T03:40:26.704Z,11.70
2018-04-08T03:42:54.160Z,11.80
2018-04-08T03:45:21.724Z,11.80
2018-04-08T03:47:49.165Z,11.70
2018-04-08T03:50:16.613Z,11.70
2018-04-08T03:52:44.061Z,11.60
2018-04-08T03:55:11.506Z,11.60
2018-04-08T03:57:38.953Z,11.50
2018-04-08T04:00:06.566Z,11.40
2018-04-08T04:02:34.023Z,11.30
2018-04-08T04:05:01.473Z,11.30
2018-04-08T04:07:28.932Z,11.30
2018-04-08T04:09:56.394Z,11.20
2018-04-08T04:12:23.827Z,11.10
2018-04-08T04:14:51.258Z,11.00
2018-04-08T04:17:18.710Z,11.00
2018-04-08T04:19:57.969Z,11.00
2018-04-08T04:22:37.153Z,11.00
2018-04-08T04:25:11.114Z,10.90
2018-04-08T04:27:38.564Z,10.80
2018-04-08T04:30:06.000Z,10.70
2018-04-08T04:32:33.741Z,10.70
2018-04-08T04:35:01.174Z,10.60
2018-04-08T04:37:28.640Z,10.60
2018-04-08T04:39:56.098Z,10.50
2018-04-08T04:42:23.553Z,10.40
2018-04-08T04:44:51.007Z,10.40
2018-04-08T04:47:18.459Z,10.40
2018-04-08T04:49:45.896Z,10.30
2018-04-08T04:52:13.348Z,10.40
2018-04-08T04:54:40.791Z,10.40
2018-04-08T04:57:08.245Z,10.50
2018-04-08T04:59:35.689Z,10.50
2018-04-08T05:02:03.166Z,10.40
2018-04-08T05:04:30.633Z,10.40
2018-04-08T05:06:58.078Z,10.40
2018-04-08T05:09:25.540Z,10.50
2018-04-08T05:11:52.989Z,10.50
2018-04-08T05:14:20.420Z,10.50
2018-04-08T05:16:47.870Z,10.50
2018-04-08T05:19:15.315Z,10.50
2018-04-08T05:21:42.768Z,10.60
2018-04-08T05:24:10.204Z,10.60
2018-04-08T05:26:37.647Z,10.70
2018-04-08T05:29:05.093Z,10.80
2018-04-08T05:31:32.541Z,10.80
2018-04-08T05:34:00.011Z,10.90
2018-04-08T05:36:27.452Z,11.00
2018-04-08T05:38:55.105Z,11.00
2018-04-08T05:41:22.611Z,11.10
2018-04-08T05:43:50.049Z,11.20
2018-04-08T05:46:17.507Z,11.30
2018-04-08T05:48:45.093Z,11.40
2018-04-08T05:51:12.529Z,11.50
2018-04-08T05:53:40.000Z,11.60
2018-04-08T05:56:07.448Z,11.70
2018-04-08T05:58:34.896Z,11.70
2018-04-08T06:01:02.337Z,11.80
2018-04-08T06:03:30.401Z,11.90
2018-04-08T06:05:57.876Z,11.90
2018-04-08T06:08:25.331Z,12.00
2018-04-08T06:10:52.786Z,12.00
2018-04-08T06:13:20.230Z,12.10
2018-04-08T06:15:47.667Z,12.10
2018-04-08T06:18:15.129Z,12.20
2018-04-08T06:20:42.576Z,12.30
2018-04-08T06:23:10.047Z,12.30
2018-04-08T06:25:37.489Z,12.40
2018-04-08T06:28:04.930Z,12.50
2018-04-08T06:30:32.382Z,12.60
2018-04-08T06:32:59.818Z,12.60
2018-04-08T06:35:28.032Z,12.80
2018-04-08T06:37:55.473Z,12.70
2018-04-08T06:40:22.908Z,12.80
2018-04-08T06:42:50.365Z,12.90
2018-04-08T06:45:17.801Z,13.00
2018-04-08T06:47:45.245Z,13.10
2018-04-08T06:50:12.678Z,13.10
2018-04-08T06:52:40.129Z,13.20
2018-04-08T06:55:07.573Z,13.30
2018-04-08T06:57:35.778Z,13.50
2018-04-08T07:00:03.233Z,13.40
2018-04-08T07:02:30.682Z,13.50
2018-04-08T07:04:58.105Z,13.60
2018-04-08T07:07:25.552Z,13.70
2018-04-08T07:09:52.992Z,13.80
2018-04-08T07:12:20.447Z,13.90
2018-04-08T07:14:47.893Z,14.00
2018-04-08T07:17:15.328Z,14.10
2018-04-08T07:19:43.066Z,14.30
2018-04-08T07:22:10.506Z,14.40
2018-04-08T07:24:37.969Z,14.50
2018-04-08T07:27:05.405Z,14.60
2018-04-08T07:29:32.846Z,14.80
2018-04-08T07:32:01.063Z,15.00
2018-04-08T07:34:28.501Z,15.00
2018-04-08T07:36:55.955Z,15.20
2018-04-08T07:39:24.164Z,15.40
2018-04-08T07:41:51.745Z,15.40
2018-04-08T07:44:19.214Z,15.60
2018-04-08T07:46:46.644Z,15.70
2018-04-08T07:49:14.102Z,15.90
2018-04-08T07:51:41.544Z,16.10
2018-04-08T07:54:09.753Z,16.30
2018-04-08T07:56:37.212Z,16.30
2018-04-08T07:59:04.654Z,16.50
2018-04-08T08:01:32.523Z,16.60
2018-04-08T08:03:59.929Z,16.70
2018-04-08T08:06:27.604Z,16.90
2018-04-08T08:08:55.075Z,17.20
2018-04-08T08:11:22.933Z,17.50
2018-04-08T08:13:50.388Z,17.80
2018-04-08T08:16:17.812Z,18.20
2018-04-08T08:18:45.266Z,18.60
2018-04-08T08:21:12.905Z,19.20
2018-04-08T08:23:40.362Z,19.90
2018-04-08T08:26:07.797Z,21.00
2018-04-08T08:28:35.240Z,21.80
2018-04-08T08:31:02.751Z,22.40
2018-04-08T08:33:33.226Z,23.00
2018-04-08T08:36:00.660Z,23.50
2018-04-08T08:38:28.117Z,23.80
2018-04-08T08:40:55.558Z,24.20
2018-04-08T08:43:22.997Z,24.60
2018-04-08T08:45:50.549Z,24.70
2018-04-08T08:48:17.992Z,24.70
2018-04-08T08:50:45.469Z,24.60
2018-04-08T08:53:12.900Z,24.70
2018-04-08T08:55:40.375Z,24.80
2018-04-08T08:58:07.825Z,24.90
2018-04-08T09:00:35.300Z,25.10
2018-04-08T09:03:02.760Z,25.40
2018-04-08T09:05:30.200Z,25.50
2018-04-08T09:07:58.008Z,25.70
2018-04-08T09:10:25.658Z,26.20
2018-04-08T09:12:53.099Z,26.60
2018-04-08T09:15:20.586Z,27.10
2018-04-08T09:17:48.029Z,27.70
2018-04-08T09:20:19.358Z,28.20
2018-04-08T09:22:52.361Z,28.60
2018-04-08T09:25:26.276Z,29.30
2018-04-08T09:27:54.388Z,29.30
2018-04-08T09:30:21.936Z,29.70
2018-04-08T09:32:49.372Z,30.00
2018-04-08T09:35:16.810Z,30.20
2018-04-08T09:37:44.250Z,29.90
2018-04-08T09:40:11.706Z,30.10
2018-04-08T09:42:39.154Z,30.40
2018-04-08T09:45:06.600Z,30.70
2018-04-08T09:47:34.034Z,30.90
2018-04-08T09:50:02.238Z,31.60
2018-04-08T09:52:29.885Z,31.50
2018-04-08T09:54:57.345Z,32.10
2018-04-08T09:57:26.614Z,32.40
2018-04-08T09:59:54.046Z,32.40
2018-04-08T10:02:27.073Z,32.00
2018-04-08T10:04:56.022Z,32.20
2018-04-08T10:07:23.666Z,32.20
2018-04-08T10:09:51.118Z,32.60
2018-04-08T10:12:19.322Z,32.80
2018-04-08T10:14:46.783Z,32.70
2018-04-08T10:17:14.238Z,32.20
2018-04-08T10:19:41.842Z,32.00
2018-04-08T10:22:09.285Z,32.00
2018-04-08T10:24:36.729Z,31.90
2018-04-08T10:27:04.185Z,31.90
2018-04-08T10:29:31.626Z,32.40
2018-04-08T10:31:59.065Z,33.00
2018-04-08T10:34:26.511Z,33.60
2018-04-08T10:36:54.065Z,33.60
2018-04-08T10:39:21.526Z,33.50
2018-04-08T10:41:48.990Z,33.40
2018-04-08T10:44:16.429Z,33.30
2018-04-08T10:46:43.894Z,32.90
2018-04-08T10:49:11.771Z,33.00
2018-04-08T10:51:39.264Z,32.90
2018-04-08T10:54:06.656Z,32.70
2018-04-08T10:56:34.099Z,32.90
2018-04-08T10:59:01.541Z,33.20
2018-04-08T11:01:30.406Z,33.80
2018-04-08T11:03:57.866Z,33.70
2018-04-08T11:06:25.310Z,34.30
2018-04-08T11:08:52.748Z,34.40
2018-04-08T11:11:20.206Z,34.20
2018-04-08T11:13:47.825Z,34.20
2018-04-08T11:16:15.313Z,34.10
2018-04-08T11:18:44.256Z,33.60
2018-04-08T11:21:11.699Z,33.60
2018-04-08T11:23:39.150Z,34.00
2018-04-08T11:26:13.539Z,34.80
2018-04-08T11:28:40.991Z,34.80
2018-04-08T11:31:08.649Z,34.90
2018-04-08T11:33:36.100Z,34.80
2018-04-08T11:36:03.559Z,34.90
2018-04-08T11:38:33.960Z,35.00
2018-04-08T11:41:01.463Z,35.10
2018-04-08T11:43:28.941Z,35.30
2018-04-08T11:45:56.400Z,35.70
2018-04-08T11:48:23.870Z,35.80
2018-04-08T11:50:51.319Z,36.10
2018-04-08T11:53:18.762Z,36.60
2018-04-08T11:55:46.206Z,36.80
2018-04-08T11:58:13.648Z,36.80
2018-04-08T12:00:41.267Z,36.60
2018-04-08T12:03:08.693Z,36.20
2018-04-08T12:05:36.141Z,35.90
2018-04-08T12:08:03.585Z,36.10
2018-04-08T12:10:31.015Z,36.40
2018-04-08T12:12:58.485Z,36.90
2018-04-08T12:15:25.933Z,37.30
2018-04-08T12:17:53.383Z,37.10
2018-04-08T12:20:20.823Z,37.00
2018-04-08T12:22:48.262Z,37.00
2018-04-08T12:25:15.714Z,37.30
2018-04-08T12:27:43.156Z,37.70
2018-04-08T12:30:10.597Z,37.60
2018-04-08T12:32:38.135Z,37.80
2018-04-08T12:35:05.565Z,37.70
2018-04-08T12:37:33.098Z,37.50
2018-04-08T12:40:00.628Z,37.60
2018-04-08T12:42:28.093Z,37.50
2018-04-08T12:44:55.538Z,37.60
2018-04-08T12:47:22.973Z,37.20
2018-04-08T12:49:50.441Z,36.50
2018-04-08T12:52:17.877Z,36.00
2018-04-08T12:54:45.337Z,36.10
2018-04-08T12:57:12.774Z,36.50
2018-04-08T12:59:40.223Z,36.10
2018-04-08T13:02:07.681Z,35.70
2018-04-08T13:04:35.113Z,36.10
2018-04-08T13:07:02.691Z,36.70
2018-04-08T13:09:30.136Z,37.30
2018-04-08T13:11:57.586Z,37.80
2018-04-08T13:14:25.233Z,38.20
2018-04-08T13:16:52.660Z,38.70
2018-04-08T13:19:20.104Z,38.70
2018-04-08T13:21:47.601Z,38.30
2018-04-08T13:24:15.036Z,38.00
2018-04-08T13:26:42.811Z,37.90
2018-04-08T13:29:10.952Z,38.00
2018-04-08T13:31:38.343Z,38.00
2018-04-08T13:34:06.105Z,38.00
2018-04-08T13:36:33.542Z,37.60
2018-04-08T13:39:01.001Z,37.40
2018-04-08T13:41:28.500Z,37.10
2018-04-08T13:43:55.970Z,36.40
2018-04-08T13:46:23.420Z,36.30
2018-04-08T13:48:50.850Z,36.70
2018-04-08T13:51:18.343Z,36.90
2018-04-08T13:53:45.805Z,36.80
2018-04-08T13:56:14.117Z,36.70
2018-04-08T13:58:41.529Z,36.50
2018-04-08T14:01:09.301Z,36.30
2018-04-08T14:03:37.513Z,36.50
2018-04-08T14:06:04.970Z,36.40
2018-04-08T14:08:40.593Z,36.70
2018-04-08T14:11:08.014Z,37.00
2018-04-08T14:13:35.522Z,37.30
2018-04-08T14:16:02.968Z,37.60
2018-04-08T14:18:32.563Z,37.90
2018-04-08T14:21:01.401Z,38.00
2018-04-08T14:23:28.839Z,37.80
2018-04-08T14:25:56.277Z,37.00
2018-04-08T14:28:23.740Z,36.60
2018-04-08T14:30:51.183Z,36.60
2018-04-08T14:33:18.700Z,36.50
2018-04-08T14:35:46.132Z,36.80
2018-04-08T14:38:13.577Z,36.80
2018-04-08T14:40:41.031Z,36.70
2018-04-08T14:43:09.225Z,36.50
2018-04-08T14:45:36.674Z,36.40
2018-04-08T14:48:04.119Z,36.40
2018-04-08T14:50:31.544Z,36.10
2018-04-08T14:52:58.993Z,36.10
2018-04-08T14:55:26.604Z,36.20
2018-04-08T14:57:54.060Z,36.30
2018-04-08T15:00:21.493Z,36.30
2018-04-08T15:02:48.934Z,36.20
2018-04-08T15:05:16.389Z,35.50
2018-04-08T15:07:43.828Z,34.50
2018-04-08T15:10:12.046Z,33.10
2018-04-08T15:12:39.553Z,33.00
2018-04-08T15:15:07.004Z,32.50
2018-04-08T15:17:34.465Z,32.00
2018-04-08T15:20:02.098Z,31.60
2018-04-08T15:22:29.551Z,31.20
2018-04-08T15:24:56.997Z,31.20
2018-04-08T15:27:24.576Z,31.40
2018-04-08T15:29:52.024Z,31.60
2018-04-08T15:32:19.481Z,31.70
2018-04-08T15:34:46.980Z,31.60
2018-04-08T15:37:14.423Z,31.60
2018-04-08T15:39:41.956Z,31.50
2018-04-08T15:42:09.467Z,31.30
2018-04-08T15:44:36.893Z,31.00
2018-04-08T15:47:04.347Z,30.50
2018-04-08T15:49:31.785Z,30.20
2018-04-08T15:51:59.230Z,30.00
2018-04-08T15:54:26.686Z,29.70
2018-04-08T15:56:54.141Z,29.50
2018-04-08T15:59:21.593Z,29.50
2018-04-08T16:01:49.039Z,29.40
2018-04-08T16:04:16.780Z,29.20
2018-04-08T16:06:45.209Z,28.60
2018-04-08T16:09:14.016Z,28.60
2018-04-08T16:11:41.773Z,28.20
2018-04-08T16:14:09.440Z,28.00
2018-04-08T16:16:36.885Z,27.90
2018-04-08T16:19:04.330Z,27.70
2018-04-08T16:21:32.028Z,27.50
2018-04-08T16:23:59.482Z,27.30
2018-04-08T16:26:27.521Z,27.10
2018-04-08T16:28:55.035Z,26.90
2018-04-08T16:31:22.573Z,26.80
2018-04-08T16:33:50.014Z,26.70
2018-04-08T16:36:17.459Z,26.60
2018-04-08T16:38:44.898Z,26.40
2018-04-08T16:41:12.620Z,26.30
2018-04-08T16:43:40.060Z,26.20
2018-04-08T16:46:07.497Z,26.10
2018-04-08T16:48:37.752Z,25.90
2018-04-08T16:51:06.737Z,25.70
2018-04-08T16:53:34.550Z,25.60
2018-04-08T16:56:02.010Z,25.50
2018-04-08T16:58:29.455Z,25.40
2018-04-08T17:00:56.901Z,25.30
2018-04-08T17:03:24.408Z,25.10
2018-04-08T17:05:51.968Z,25.00
2018-04-08T17:08:19.436Z,24.90
2018-04-08T17:10:46.864Z,24.70
2018-04-08T17:13:14.316Z,24.60
2018-04-08T17:15:41.755Z,24.40
2018-04-08T17:18:09.192Z,24.30
2018-04-08T17:20:37.417Z,24.10
2018-04-08T17:23:04.857Z,24.10
2018-04-08T17:25:33.072Z,23.90
2018-04-08T17:28:00.508Z,23.80
2018-04-08T17:30:28.179Z,23.80
2018-04-08T17:32:55.641Z,23.70
2018-04-08T17:35:23.086Z,23.50
2018-04-08T17:37:50.701Z,23.50
2018-04-08T17:40:18.136Z,23.30
2018-04-08T17:42:45.813Z,23.20
2018-04-08T17:45:13.266Z,23.10
2018-04-08T17:47:40.738Z,23.00
2018-04-08T17:50:08.199Z,22.90
2018-04-08T17:52:35.659Z,22.80
2018-04-08T17:55:03.090Z,22.70
2018-04-08T17:57:30.600Z,22.60
2018-04-08T17:59:58.057Z,22.50
2018-04-08T18:02:25.506Z,22.50
2018-04-08T18:04:52.949Z,22.40
2018-04-08T18:07:20.729Z,22.30
2018-04-08T18:09:48.206Z,22.20
2018-04-08T18:12:15.651Z,22.10
2018-04-08T18:14:43.101Z,22.10
2018-04-08T18:17:10.540Z,22.00
2018-04-08T18:19:38.044Z,21.90
2018-04-08T18:22:05.500Z,21.80
2018-04-08T18:24:32.938Z,21.80
2018-04-08T18:27:00.385Z,21.70
2018-04-08T18:29:28.589Z,21.50
2018-04-08T18:31:56.089Z,21.50
2018-04-08T18:34:23.546Z,21.40
2018-04-08T18:36:50.985Z,21.40
2018-04-08T18:39:18.431Z,21.20
2018-04-08T18:41:46.146Z,21.20
2018-04-08T18:44:13.689Z,21.10
2018-04-08T18:46:41.134Z,21.00
2018-04-08T18:49:08.630Z,21.00
2018-04-08T18:51:36.088Z,20.90
2018-04-08T18:54:03.546Z,20.90
2018-04-08T18:56:30.984Z,20.90
2018-04-08T18:58:58.441Z,20.80
2018-04-08T19:01:25.906Z,20.80
2018-04-08T19:03:53.421Z,20.70
2018-04-08T19:06:20.865Z,20.70
2018-04-08T19:08:48.321Z,20.70
2018-04-08T19:11:16.076Z,20.70
2018-04-08T19:13:43.517Z,20.60
2018-04-08T19:16:11.046Z,20.60
2018-04-08T19:18:38.482Z,20.60
2018-04-08T19:21:09.219Z,20.50
2018-04-08T19:23:36.870Z,20.50
2018-04-08T19:26:04.328Z,20.40
2018-04-08T19:28:32.025Z,20.40
2018-04-08T19:30:59.466Z,20.40
2018-04-08T19:33:29.357Z,20.30
2018-04-08T19:35:56.813Z,20.30
2018-04-08T19:38:24.256Z,20.20
2018-04-08T19:40:51.713Z,20.20
2018-04-08T19:43:20.243Z,20.10
2018-04-08T19:45:47.689Z,20.00
2018-04-08T19:48:15.130Z,20.00
2018-04-08T19:50:42.561Z,20.00
2018-04-08T19:53:10.394Z,19.90
2018-04-08T19:55:37.887Z,19.80
2018-04-08T19:58:05.321Z,19.80
2018-04-08T20:00:32.770Z,19.70
2018-04-08T20:03:00.237Z,19.70
2018-04-08T20:05:27.810Z,19.60
2018-04-08T20:07:55.253Z,19.60
2018-04-08T20:10:22.702Z,19.50
2018-04-08T20:12:50.397Z,19.50
2018-04-08T20:15:17.837Z,19.40
2018-04-08T20:17:45.297Z,19.30
2018-04-08T20:20:12.721Z,19.30
2018-04-08T20:22:40.350Z,19.30
2018-04-08T20:25:08.564Z,19.20
2018-04-08T20:27:36.765Z,19.20
2018-04-08T20:30:04.226Z,19.10
2018-04-08T20:32:32.061Z,19.10
2018-04-08T20:34:59.709Z,19.10
2018-04-08T20:37:27.153Z,19.00
2018-04-08T20:39:54.601Z,18.90
2018-04-08T20:42:22.046Z,18.90
2018-04-08T20:44:49.767Z,18.80
2018-04-08T20:47:17.222Z,18.80
2018-04-08T20:49:44.965Z,18.70
2018-04-08T20:52:12.750Z,18.70
2018-04-08T20:54:40.212Z,18.60
2018-04-08T20:57:07.750Z,18.50
2018-04-08T20:59:35.206Z,18.50
2018-04-08T21:02:02.901Z,18.40
2018-04-08T21:04:30.341Z,18.30
2018-04-08T21:06:57.842Z,18.20
2018-04-08T21:09:25.382Z,18.10
2018-04-08T21:11:52.789Z,18.00
2018-04-08T21:14:20.400Z,17.90
2018-04-08T21:16:47.845Z,17.80
2018-04-08T21:19:15.298Z,17.80
2018-04-08T21:21:42.733Z,17.80
2018-04-08T21:24:10.177Z,17.70
2018-04-08T21:26:37.629Z,17.70
2018-04-08T21:29:05.072Z,17.70
2018-04-08T21:31:32.516Z,17.60
2018-04-08T21:33:59.976Z,17.60
2018-04-08T21:36:27.422Z,17.60
2018-04-08T21:38:55.033Z,17.60
2018-04-08T21:41:22.472Z,17.50
2018-04-08T21:43:50.022Z,17.50
2018-04-08T21:46:17.488Z,17.50
2018-04-08T21:48:44.936Z,17.50
2018-04-08T21:51:12.401Z,17.50
2018-04-08T21:53:40.006Z,17.40
2018-04-08T21:56:07.477Z,17.40
2018-04-08T21:58:34.929Z,17.30
2018-04-08T22:01:02.382Z,17.30
2018-04-08T22:03:37.250Z,17.20
2018-04-08T22:06:04.688Z,17.20
2018-04-08T22:08:32.128Z,17.10
2018-04-08T22:10:59.585Z,17.10
2018-04-08T22:13:27.161Z,17.00
2018-04-08T22:15:54.617Z,16.90
2018-04-08T22:18:22.064Z,16.90
2018-04-08T22:20:49.501Z,16.80
2018-04-08T22:23:16.953Z,16.70
2018-04-08T22:25:44.386Z,16.70
2018-04-08T22:28:11.837Z,16.60
2018-04-08T22:30:39.285Z,16.60
2018-04-08T22:33:06.730Z,16.60
2018-04-08T22:35:34.172Z,16.60
2018-04-08T22:38:01.618Z,16.60
2018-04-08T22:40:29.838Z,16.50
2018-04-08T22:42:57.288Z,16.50
2018-04-08T22:45:24.711Z,16.50
2018-04-08T22:47:52.458Z,16.50
2018-04-08T22:50:19.889Z,16.50
2018-04-08T22:52:47.346Z,16.40
2018-04-08T22:55:14.798Z,16.40
2018-04-08T22:57:42.229Z,16.40
2018-04-08T23:00:09.675Z,16.40
2018-04-08T23:02:37.117Z,16.40
2018-04-08T23:05:05.321Z,16.40
2018-04-08T23:07:33.524Z,16.50
2018-04-08T23:10:00.969Z,16.40
2018-04-08T23:12:28.788Z,16.50
2018-04-08T23:14:56.223Z,16.50
2018-04-08T23:17:23.679Z,16.50
2018-04-08T23:19:51.356Z,16.50
2018-04-08T23:22:18.817Z,16.50
2018-04-08T23:24:46.637Z,16.50
2018-04-08T23:27:14.072Z,16.50
2018-04-08T23:29:41.513Z,16.50
2018-04-08T23:32:08.949Z,16.40
2018-04-08T23:34:36.389Z,16.40
2018-04-08T23:37:04.222Z,16.40
2018-04-08T23:39:31.653Z,16.30
2018-04-08T23:41:59.110Z,16.20
2018-04-08T23:44:26.590Z,16.20
2018-04-08T23:46:54.001Z,16.10
2018-04-08T23:49:21.445Z,16.10
2018-04-08T23:51:49.174Z,16.00
2018-04-08T23:54:16.625Z,16.00
2018-04-08T23:56:44.065Z,16.00
2018-04-08T23:59:11.499Z,16.00
